createdAt,value
2018-04-23T00:01:00.496Z,18.93
2018-04-23T00:03:32.113Z,15.10
2018-04-23T00:05:59.628Z,16.63
2018-04-23T00:08:27.890Z,20.20
2018-04-23T00:10:55.377Z,19.00
2018-04-23T00:13:22.903Z,13.93
2018-04-23T00:15:50.412Z,12.50
2018-04-23T00:18:17.961Z,13.00
2018-04-23T00:20:45.456Z,20.60
2018-04-23T00:23:12.973Z,21.07
2018-04-23T00:25:41.245Z,23.63
2018-04-23T00:28:09.534Z,16.03
2018-04-23T00:30:37.054Z,15.30
2018-04-23T00:33:04.573Z,16.13
2018-04-23T00:35:32.144Z,20.33
2018-04-23T00:37:59.746Z,34.53
2018-04-23T00:40:27.266Z,28.67
2018-04-23T00:42:55.551Z,27.40
2018-04-23T00:45:23.072Z,20.63
2018-04-23T00:47:51.353Z,21.13
2018-04-23T00:50:18.840Z,19.30
2018-04-23T00:52:46.403Z,20.23
2018-04-23T00:55:14.089Z,24.10
2018-04-23T00:57:41.661Z,24.80
2018-04-23T01:00:09.181Z,25.37
2018-04-23T01:02:37.521Z,20.40
2018-04-23T01:05:05.848Z,16.70
2018-04-23T01:07:33.365Z,17.50
2018-04-23T01:10:01.697Z,18.60
2018-04-23T01:12:29.275Z,22.37
2018-04-23T01:14:56.837Z,19.30
2018-04-23T01:17:24.367Z,15.80
2018-04-23T01:19:51.894Z,15.80
2018-04-23T01:22:19.407Z,18.43
2018-04-23T01:24:46.933Z,23.37
2018-04-23T01:27:14.425Z,21.93
2018-04-23T01:29:41.965Z,20.23
2018-04-23T01:32:09.462Z,20.57
2018-04-23T01:34:36.961Z,20.87
2018-04-23T01:37:04.492Z,21.10
2018-04-23T01:39:32.829Z,22.90
2018-04-23T01:42:00.506Z,32.67
2018-04-23T01:44:28.027Z,26.93
2018-04-23T01:46:55.573Z,34.33
2018-04-23T01:49:23.182Z,31.63
2018-04-23T01:51:50.775Z,31.93
2018-04-23T01:54:18.328Z,22.50
2018-04-23T01:56:45.955Z,24.03
2018-04-23T01:59:13.620Z,19.03
2018-04-23T02:01:41.178Z,18.40
2018-04-23T02:04:08.717Z,23.07
2018-04-23T02:06:36.360Z,17.03
2018-04-23T02:09:04.655Z,17.93
2018-04-23T02:11:32.181Z,13.80
2018-04-23T02:13:59.825Z,19.30
2018-04-23T02:16:27.363Z,30.27
2018-04-23T02:18:55.747Z,23.13
2018-04-23T02:21:23.249Z,24.00
2018-04-23T02:23:50.906Z,23.50
2018-04-23T02:26:18.415Z,17.13
2018-04-23T02:28:45.956Z,22.87
2018-04-23T02:31:13.531Z,17.77
2018-04-23T02:33:42.003Z,23.90
2018-04-23T02:36:09.619Z,18.83
2018-04-23T02:38:37.231Z,22.00
2018-04-23T02:41:04.851Z,21.73
2018-04-23T02:43:32.467Z,16.10
2018-04-23T02:45:59.970Z,15.97
2018-04-23T02:48:27.594Z,17.63
2018-04-23T02:50:55.186Z,16.73
2018-04-23T02:53:22.733Z,15.73
2018-04-23T02:55:50.421Z,15.47
2018-04-23T02:58:18.123Z,16.93
2018-04-23T03:00:45.759Z,15.73
2018-04-23T03:03:15.859Z,17.87
2018-04-23T03:05:44.067Z,18.43
2018-04-23T03:08:12.430Z,22.03
2018-04-23T03:10:40.060Z,19.47
2018-04-23T03:13:07.979Z,21.13
2018-04-23T03:15:36.286Z,24.93
2018-04-23T03:18:04.051Z,19.80
2018-04-23T03:20:32.250Z,23.03
2018-04-23T03:23:01.197Z,31.33
2018-04-23T03:25:29.561Z,27.87
2018-04-23T03:27:57.136Z,26.97
2018-04-23T03:30:27.240Z,29.67
2018-04-23T03:32:56.091Z,34.67
2018-04-23T03:35:23.683Z,34.00
2018-04-23T03:37:51.689Z,31.00
2018-04-23T03:40:20.257Z,36.43
2018-04-23T03:42:49.845Z,44.70
2018-04-23T03:45:18.364Z,48.80
2018-04-23T03:47:47.135Z,46.57
2018-04-23T03:50:15.833Z,48.77
2018-04-23T03:52:45.867Z,42.60
2018-04-23T03:55:13.615Z,39.10
2018-04-23T03:57:42.754Z,38.30
2018-04-23T04:00:10.392Z,64.63
2018-04-23T04:02:38.876Z,36.40
2018-04-23T04:05:06.635Z,29.33
2018-04-23T04:07:34.418Z,37.67
2018-04-23T04:10:02.087Z,37.80
2018-04-23T04:12:43.513Z,31.63
2018-04-23T04:15:23.055Z,31.33
2018-04-23T04:21:00.183Z,32.43
2018-04-23T04:23:29.588Z,33.80
2018-04-23T04:25:57.627Z,34.67
2018-04-23T04:28:26.008Z,30.87
2018-04-23T04:30:55.153Z,30.83
2018-04-23T04:33:24.300Z,20.43
2018-04-23T04:35:53.649Z,20.17
2018-04-23T04:38:22.676Z,16.80
2018-04-23T04:40:54.609Z,19.13
2018-04-23T04:43:23.063Z,17.67
2018-04-23T04:45:50.745Z,18.40
2018-04-23T04:48:19.131Z,14.83
2018-04-23T04:50:47.590Z,12.50
2018-04-23T04:53:15.147Z,18.17
2018-04-23T04:55:42.691Z,15.55
2018-04-23T04:58:10.301Z,15.23
2018-04-23T05:00:37.940Z,14.00
2018-04-23T05:03:09.529Z,20.93
2018-04-23T05:05:37.306Z,18.47
2018-04-23T05:08:05.050Z,24.87
2018-04-23T05:10:32.637Z,32.47
2018-04-23T05:13:00.182Z,17.50
2018-04-23T05:15:27.703Z,17.45
2018-04-23T05:17:56.635Z,25.30
2018-04-23T05:20:24.243Z,26.27
2018-04-23T05:22:52.886Z,27.90
2018-04-23T05:25:20.867Z,20.47
2018-04-23T05:27:48.455Z,31.00
2018-04-23T05:30:16.195Z,27.90
2018-04-23T05:32:44.594Z,23.00
2018-04-23T05:35:12.144Z,13.87
2018-04-23T05:37:39.682Z,21.57
2018-04-23T05:42:35.863Z,15.30
2018-04-23T05:45:04.049Z,11.77
2018-04-23T05:47:32.167Z,16.97
2018-04-23T05:50:00.017Z,14.97
2018-04-23T05:52:29.459Z,15.90
2018-04-23T05:54:57.215Z,24.23
2018-04-23T05:57:25.561Z,14.70
2018-04-23T05:59:53.809Z,11.50
2018-04-23T06:02:21.965Z,26.43
2018-04-23T06:04:56.194Z,17.83
2018-04-23T06:07:23.874Z,27.40
2018-04-23T06:09:51.822Z,16.17
2018-04-23T06:12:19.727Z,17.00
2018-04-23T06:14:47.286Z,16.27
2018-04-23T06:17:14.922Z,11.00
2018-04-23T06:19:43.266Z,11.93
2018-04-23T06:22:11.687Z,16.03
2018-04-23T06:24:39.543Z,23.40
2018-04-23T06:27:07.712Z,27.50
2018-04-23T06:29:35.377Z,18.57
2018-04-23T06:32:03.091Z,16.57
2018-04-23T06:34:31.810Z,16.30
2018-04-23T06:36:59.817Z,30.87
2018-04-23T06:39:27.887Z,21.73
2018-04-23T06:41:55.894Z,39.60
2018-04-23T06:44:24.675Z,27.13
2018-04-23T06:46:53.585Z,16.73
2018-04-23T06:49:21.533Z,19.57
2018-04-23T06:51:49.425Z,16.00
2018-04-23T06:54:18.115Z,22.20
2018-04-23T06:56:45.937Z,9.50
2018-04-23T06:59:14.151Z,26.57
2018-04-23T07:01:42.760Z,30.07
2018-04-23T07:04:11.291Z,14.05
2018-04-23T07:06:39.237Z,29.15
2018-04-23T07:09:09.162Z,19.90
2018-04-23T07:14:16.753Z,16.13
2018-04-23T07:16:44.408Z,21.47
2018-04-23T07:19:12.074Z,23.93
2018-04-23T07:21:39.864Z,14.43
2018-04-23T07:24:07.971Z,32.93
2018-04-23T07:26:36.602Z,27.90
2018-04-23T07:29:04.981Z,31.23
2018-04-23T07:31:33.764Z,30.67
2018-04-23T07:34:01.509Z,34.50
2018-04-23T07:36:30.220Z,34.37
2018-04-23T07:38:58.358Z,45.20
2018-04-23T07:41:26.021Z,22.20
2018-04-23T07:43:54.043Z,17.40
2018-04-23T07:46:21.789Z,31.10
2018-04-23T07:48:49.497Z,31.97
2018-04-23T07:51:17.245Z,17.10
2018-04-23T07:53:45.155Z,22.33
2018-04-23T07:56:12.819Z,18.77
2018-04-23T07:58:40.604Z,26.83
2018-04-23T08:01:13.317Z,33.50
2018-04-23T08:03:41.319Z,13.13
2018-04-23T08:06:09.174Z,21.10
2018-04-23T08:08:37.078Z,35.97
2018-04-23T08:11:04.841Z,16.00
2018-04-23T08:13:32.698Z,12.80
2018-04-23T08:16:00.713Z,21.43
2018-04-23T08:18:28.628Z,14.13
2018-04-23T08:20:56.556Z,15.60
2018-04-23T08:23:24.686Z,19.20
2018-04-23T08:25:52.240Z,38.57
2018-04-23T08:28:19.739Z,25.73
2018-04-23T08:30:48.009Z,20.57
2018-04-23T08:33:16.509Z,12.97
2018-04-23T08:35:45.450Z,16.90
2018-04-23T08:38:13.339Z,19.43
2018-04-23T08:40:42.018Z,17.20
2018-04-23T08:43:10.115Z,15.63
2018-04-23T08:45:37.811Z,17.23
2018-04-23T08:48:05.725Z,25.43
2018-04-23T08:50:33.319Z,16.70
2018-04-23T08:53:01.090Z,23.93
2018-04-23T08:55:29.287Z,47.70
2018-04-23T08:57:57.219Z,22.93
2018-04-23T09:00:26.232Z,17.53
2018-04-23T09:02:53.902Z,19.97
2018-04-23T09:05:21.568Z,22.07
2018-04-23T09:07:49.606Z,34.10
2018-04-23T09:10:18.274Z,35.67
2018-04-23T09:12:46.010Z,22.10
2018-04-23T09:15:14.079Z,11.80
2018-04-23T09:17:41.913Z,17.13
2018-04-23T09:20:10.407Z,66.10
2018-04-23T09:22:38.104Z,16.63
2018-04-23T09:25:05.833Z,17.53
2018-04-23T09:27:33.479Z,13.67
2018-04-23T09:30:01.675Z,26.60
2018-04-23T09:32:30.922Z,18.33
2018-04-23T09:34:59.425Z,14.10
2018-04-23T09:37:27.321Z,17.73
2018-04-23T09:39:55.005Z,17.60
2018-04-23T09:47:18.585Z,24.93
2018-04-23T09:49:46.385Z,23.20
2018-04-23T09:54:41.853Z,16.83
2018-04-23T09:57:09.568Z,21.63
2018-04-23T09:59:38.078Z,19.67
2018-04-23T10:02:06.171Z,26.33
2018-04-23T10:04:34.027Z,22.03
2018-04-23T10:07:01.677Z,20.23
2018-04-23T10:09:29.639Z,29.17
2018-04-23T10:11:57.698Z,18.13
2018-04-23T10:14:25.632Z,15.80
2018-04-23T10:16:54.278Z,21.20
2018-04-23T10:19:22.100Z,17.30
2018-04-23T10:21:49.790Z,14.33
2018-04-23T10:24:17.668Z,17.90
2018-04-23T10:26:46.012Z,25.83
2018-04-23T10:29:15.032Z,42.47
2018-04-23T10:31:43.218Z,58.27
2018-04-23T10:34:11.004Z,24.53
2018-04-23T10:36:38.820Z,29.77
2018-04-23T10:39:06.560Z,36.75
2018-04-23T10:41:35.280Z,29.50
2018-04-23T10:44:07.612Z,30.45
2018-04-23T10:46:36.356Z,30.65
2018-04-23T10:49:04.814Z,27.67
2018-04-23T10:51:34.759Z,26.53
2018-04-23T10:54:02.507Z,23.70
2018-04-23T10:56:31.490Z,24.93
2018-04-23T10:58:59.784Z,30.37
2018-04-23T11:01:29.005Z,26.50
2018-04-23T11:03:57.738Z,25.13
2018-04-23T11:06:25.340Z,19.53
2018-04-23T11:08:53.262Z,32.13
2018-04-23T11:11:22.102Z,21.43
2018-04-23T11:13:50.618Z,31.03
2018-04-23T11:16:18.744Z,22.70
2018-04-23T11:18:47.210Z,26.90
2018-04-23T11:21:15.687Z,22.23
2018-04-23T11:26:11.792Z,18.90
2018-04-23T11:28:40.640Z,16.40
2018-04-23T11:31:08.752Z,31.13
2018-04-23T11:33:36.563Z,27.67
2018-04-23T11:36:05.430Z,25.50
2018-04-23T11:38:33.961Z,13.30
2018-04-23T11:41:02.790Z,21.23
2018-04-23T11:43:31.272Z,24.93
2018-04-23T11:46:00.018Z,22.80
2018-04-23T11:48:28.528Z,17.30
2018-04-23T11:50:56.890Z,22.53
2018-04-23T11:53:26.798Z,22.03
2018-04-23T11:55:54.884Z,24.57
2018-04-23T11:58:22.726Z,18.87
2018-04-23T12:00:51.488Z,19.70
2018-04-23T12:03:19.688Z,23.93
2018-04-23T12:05:49.202Z,17.30
2018-04-23T12:08:16.998Z,15.87
2018-04-23T12:10:44.720Z,17.17
2018-04-23T12:13:13.826Z,21.60
2018-04-23T12:15:42.114Z,17.43
2018-04-23T12:18:09.628Z,29.00
2018-04-23T12:20:37.532Z,22.47
2018-04-23T12:23:06.416Z,20.97
2018-04-23T12:25:35.225Z,17.50
2018-04-23T12:28:06.868Z,19.30
2018-04-23T12:30:35.292Z,17.63
2018-04-23T12:33:03.066Z,15.37
2018-04-23T12:35:31.204Z,14.53
2018-04-23T12:37:58.814Z,18.70
2018-04-23T12:40:26.638Z,19.77
2018-04-23T12:42:54.436Z,17.43
2018-04-23T12:45:22.224Z,16.33
2018-04-23T12:47:50.641Z,23.07
2018-04-23T12:50:18.257Z,18.67
2018-04-23T12:52:46.079Z,16.97
2018-04-23T12:55:13.898Z,16.93
2018-04-23T12:57:41.943Z,14.57
2018-04-23T13:00:10.067Z,16.93
2018-04-23T13:02:38.421Z,23.60
2018-04-23T13:05:06.427Z,23.35
2018-04-23T13:07:35.221Z,21.15
2018-04-23T13:10:03.320Z,24.70
2018-04-23T13:12:31.696Z,23.33
2018-04-23T13:14:59.577Z,21.73
2018-04-23T13:17:27.856Z,19.10
2018-04-23T13:19:55.704Z,16.53
2018-04-23T13:22:24.210Z,16.93
2018-04-23T13:24:52.249Z,23.23
2018-04-23T13:27:22.441Z,26.10
2018-04-23T13:29:51.691Z,18.67
2018-04-23T13:32:19.649Z,24.10
2018-04-23T13:34:57.838Z,18.43
2018-04-23T13:37:25.529Z,15.93
2018-04-23T13:39:53.370Z,20.90
2018-04-23T13:42:22.002Z,22.23
2018-04-23T13:47:42.506Z,23.03
2018-04-23T13:50:10.246Z,22.53
2018-04-23T13:52:40.364Z,22.43
2018-04-23T13:55:11.097Z,25.83
2018-04-23T13:57:39.410Z,21.63
2018-04-23T14:00:07.455Z,25.47
2018-04-23T14:02:36.296Z,17.83
2018-04-23T14:05:07.326Z,19.03
2018-04-23T14:07:35.025Z,23.60
2018-04-23T14:10:03.031Z,22.40
2018-04-23T14:12:30.782Z,18.07
2018-04-23T14:14:59.255Z,19.60
2018-04-23T14:17:27.915Z,16.43
2018-04-23T14:22:49.922Z,20.60
2018-04-23T14:25:24.023Z,18.60
2018-04-23T14:27:52.116Z,19.67
2018-04-23T14:30:20.545Z,12.77
2018-04-23T14:35:42.535Z,17.13
2018-04-23T14:38:11.211Z,26.27
2018-04-23T14:40:38.947Z,21.05
2018-04-23T14:43:11.657Z,19.17
2018-04-23T14:45:41.497Z,21.30
2018-04-23T14:48:09.795Z,23.03
2018-04-23T14:50:37.599Z,15.67
2018-04-23T14:53:05.982Z,18.63
2018-04-23T14:55:33.879Z,20.33
2018-04-23T14:58:02.017Z,20.67
2018-04-23T15:00:29.919Z,19.60
2018-04-23T15:03:05.534Z,21.50
2018-04-23T15:05:33.740Z,16.85
2018-04-23T15:08:02.623Z,30.00
2018-04-23T15:10:31.095Z,18.33
2018-04-23T15:12:59.050Z,20.00
2018-04-23T15:15:26.772Z,21.00
2018-04-23T15:17:54.580Z,15.53
2018-04-23T15:20:22.293Z,20.73
2018-04-23T15:22:49.959Z,29.07
2018-04-23T15:25:18.127Z,16.77
2018-04-23T15:27:46.187Z,22.00
2018-04-23T15:30:15.902Z,24.60
2018-04-23T15:32:43.893Z,21.67
2018-04-23T15:35:11.760Z,21.77
2018-04-23T15:37:39.928Z,18.77
2018-04-23T15:40:08.273Z,17.60
2018-04-23T15:42:35.908Z,22.20
2018-04-23T15:45:03.758Z,41.50
2018-04-23T15:47:31.654Z,18.23
2018-04-23T15:50:00.359Z,23.20
2018-04-23T15:52:36.705Z,23.90
2018-04-23T15:55:05.351Z,26.23
2018-04-23T16:03:22.333Z,37.37
2018-04-23T16:05:51.392Z,25.30
2018-04-23T16:08:19.641Z,26.90
2018-04-23T16:13:42.301Z,39.70
2018-04-23T16:16:10.176Z,22.30
2018-04-23T16:18:38.270Z,34.73
2018-04-23T16:24:01.174Z,25.87
2018-04-23T16:26:29.177Z,48.27
2018-04-23T16:28:57.774Z,20.53
2018-04-23T16:31:26.624Z,24.20
2018-04-23T16:34:12.498Z,22.00
2018-04-23T16:36:40.575Z,19.83
2018-04-23T16:39:09.084Z,25.40
2018-04-23T16:41:37.919Z,16.40
2018-04-23T16:44:27.166Z,9.93
2018-04-23T16:46:50.257Z,17.73
2018-04-23T16:49:41.755Z,16.53
2018-04-23T16:52:10.332Z,21.97
2018-04-23T16:54:55.879Z,18.37
2018-04-23T16:57:24.119Z,16.30
2018-04-23T16:59:51.715Z,23.27
2018-04-23T17:02:19.564Z,20.50
2018-04-23T17:04:47.878Z,30.33
2018-04-23T17:07:16.055Z,17.70
2018-04-23T17:09:44.510Z,31.57
2018-04-23T17:12:12.832Z,25.90
2018-04-23T17:14:41.257Z,21.10
2018-04-23T17:17:09.537Z,27.47
2018-04-23T17:19:38.124Z,14.95
2018-04-23T17:22:06.266Z,19.87
2018-04-23T17:24:34.015Z,21.73
2018-04-23T17:27:02.000Z,17.97
2018-04-23T17:31:57.871Z,22.05
2018-04-23T17:34:25.720Z,26.27
2018-04-23T17:36:56.652Z,32.70
2018-04-23T17:39:27.651Z,23.20
2018-04-23T17:41:57.350Z,23.07
2018-04-23T17:44:25.114Z,17.55
2018-04-23T17:46:52.766Z,22.90
2018-04-23T17:49:20.523Z,30.45
2018-04-23T17:51:48.591Z,20.63
2018-04-23T17:54:16.994Z,18.77
2018-04-23T17:56:45.189Z,18.10
2018-04-23T17:59:12.965Z,24.15
2018-04-23T18:01:44.030Z,32.60
2018-04-23T18:04:12.112Z,20.60
2018-04-23T18:06:40.588Z,25.00
2018-04-23T18:09:09.636Z,18.77
2018-04-23T18:11:38.176Z,18.50
2018-04-23T18:14:06.753Z,14.37
2018-04-23T18:16:35.184Z,17.90
2018-04-23T18:19:03.974Z,16.47
2018-04-23T18:21:31.959Z,18.40
2018-04-23T18:24:04.469Z,13.63
2018-04-23T18:26:32.907Z,13.50
2018-04-23T18:29:03.187Z,15.00
2018-04-23T18:31:32.484Z,16.13
2018-04-23T18:34:00.716Z,17.30
2018-04-23T18:36:29.669Z,23.43
2018-04-23T18:38:58.887Z,16.87
2018-04-23T18:41:27.608Z,17.47
2018-04-23T18:43:56.048Z,21.17
2018-04-23T18:46:23.813Z,20.70
2018-04-23T18:48:56.557Z,29.00
2018-04-23T18:51:25.680Z,23.90
2018-04-23T18:53:54.521Z,26.75
2018-04-23T18:56:22.754Z,25.60
2018-04-23T18:58:51.877Z,24.07
2018-04-23T19:01:21.016Z,26.47
2018-04-23T19:03:50.192Z,28.40
2018-04-23T19:06:18.351Z,49.83
2018-04-23T19:08:46.401Z,21.25
2018-04-23T19:11:14.006Z,21.43
2018-04-23T19:13:41.797Z,25.67
2018-04-23T19:16:09.503Z,26.17
2018-04-23T19:18:38.762Z,26.00
2018-04-23T19:21:06.643Z,34.40
2018-04-23T19:23:34.531Z,27.65
2018-04-23T19:26:02.225Z,20.53
2018-04-23T19:28:30.658Z,24.70
2018-04-23T19:30:59.167Z,31.17
2018-04-23T19:33:27.380Z,27.57
2018-04-23T19:35:55.877Z,25.70
2018-04-23T19:38:23.683Z,33.17
2018-04-23T19:40:52.557Z,30.47
2018-04-23T19:43:21.017Z,31.63
2018-04-23T19:45:49.298Z,29.03
2018-04-23T19:48:17.673Z,36.30
2018-04-23T19:50:45.587Z,41.40
2018-04-23T19:53:14.189Z,83.90
2018-04-23T19:55:42.114Z,104.00
2018-04-23T19:58:09.833Z,62.43
2018-04-23T20:00:38.526Z,74.57
2018-04-23T20:03:06.391Z,63.93
2018-04-23T20:05:34.429Z,81.73
2018-04-23T20:08:05.325Z,53.03
2018-04-23T20:10:36.266Z,54.35
2018-04-23T20:13:04.168Z,41.40
2018-04-23T20:15:33.179Z,96.97
2018-04-23T20:18:01.290Z,76.23
2018-04-23T20:20:30.351Z,90.43
2018-04-23T20:22:58.209Z,61.15
2018-04-23T20:25:26.363Z,105.55
2018-04-23T20:27:55.842Z,64.53
2018-04-23T20:30:24.239Z,87.03
2018-04-23T20:35:44.818Z,55.70
2018-04-23T20:38:12.790Z,63.30
2018-04-23T20:40:41.352Z,131.97
2018-04-23T20:43:09.302Z,173.40
2018-04-23T20:45:38.026Z,161.07
2018-04-23T20:48:05.856Z,106.80
2018-04-23T20:50:34.511Z,201.43
2018-04-23T20:53:02.308Z,197.63
2018-04-23T20:55:30.218Z,166.97
2018-04-23T20:57:58.065Z,176.20
2018-04-23T21:00:26.618Z,208.63
2018-04-23T21:02:54.569Z,146.03
2018-04-23T21:05:22.736Z,191.23
2018-04-23T21:07:50.660Z,297.27
2018-04-23T21:10:18.684Z,280.80
2018-04-23T21:12:46.393Z,228.23
2018-04-23T21:15:14.838Z,79.47
2018-04-23T21:17:42.879Z,130.57
2018-04-23T21:20:10.753Z,62.93
2018-04-23T21:22:40.272Z,71.67
2018-04-23T21:25:09.281Z,149.85
2018-04-23T21:27:37.337Z,154.83
2018-04-23T21:30:05.521Z,323.50
2018-04-23T21:32:33.627Z,279.23
2018-04-23T21:35:02.371Z,164.50
2018-04-23T21:37:30.611Z,215.90
2018-04-23T21:39:59.267Z,504.10
2018-04-23T21:42:33.455Z,98.63
2018-04-23T21:45:01.614Z,195.93
2018-04-23T21:47:29.641Z,539.17
2018-04-23T21:49:58.790Z,486.70
2018-04-23T21:52:26.822Z,633.07
2018-04-23T21:54:56.442Z,165.20
2018-04-23T21:57:24.520Z,570.83
2018-04-23T21:59:52.710Z,547.00
2018-04-23T22:02:20.973Z,252.67
2018-04-23T22:04:48.982Z,753.50
2018-04-23T22:07:16.970Z,604.33
2018-04-23T22:09:45.006Z,278.27
2018-04-23T22:12:13.717Z,680.37
2018-04-23T22:14:41.639Z,659.77
2018-04-23T22:17:10.684Z,135.87
2018-04-23T22:19:38.500Z,469.00
2018-04-23T22:22:06.318Z,448.50
2018-04-23T22:24:34.194Z,544.50
2018-04-23T22:27:01.824Z,383.73
2018-04-23T22:29:29.976Z,546.90
2018-04-23T22:31:59.126Z,266.57
2018-04-23T22:34:26.990Z,321.80
2018-04-23T22:36:54.814Z,454.53
2018-04-23T22:39:22.874Z,475.87
2018-04-23T22:41:51.691Z,480.90
2018-04-23T22:44:19.808Z,489.47
2018-04-23T22:46:47.714Z,738.00
2018-04-23T22:49:17.060Z,194.10
2018-04-23T22:51:44.874Z,151.77
2018-04-23T22:54:13.591Z,231.90
2018-04-23T22:56:41.704Z,376.23
2018-04-23T22:59:09.826Z,90.10
2018-04-23T23:01:37.837Z,228.80
2018-04-23T23:04:05.793Z,288.10
2018-04-23T23:06:33.463Z,101.95
2018-04-23T23:09:01.431Z,352.70
2018-04-23T23:11:30.007Z,340.10
2018-04-23T23:14:19.827Z,292.90
2018-04-23T23:16:47.914Z,488.20
2018-04-23T23:19:18.696Z,149.70
2018-04-23T23:21:47.350Z,326.27
2018-04-23T23:24:16.646Z,228.00
2018-04-23T23:26:47.834Z,357.77
2018-04-23T23:29:16.571Z,91.00
2018-04-23T23:31:45.613Z,218.80
2018-04-23T23:34:15.894Z,137.30
2018-04-23T23:36:44.098Z,60.63
2018-04-23T23:39:12.475Z,82.60
2018-04-23T23:41:40.467Z,67.97
2018-04-23T23:44:08.717Z,75.47
2018-04-23T23:46:37.543Z,445.40
2018-04-23T23:49:06.014Z,99.87
2018-04-23T23:51:34.040Z,536.67
2018-04-23T23:54:02.989Z,639.47
2018-04-23T23:56:37.606Z,619.87
2018-04-23T23:59:06.959Z,1072.93
